Fort Hope, Canada
Current Conditions -  °F | °C
As of 12:00 AM on Saturday 20 Dec 2014 (Local Time) from CYLH Reporting Station
Overcast Overcast  
Wind Chill:   Ceiling: 1100
Heat Index: 18°   Visibility: 9mi
Dew Point: 16°   Wind: 7mph
Humidity: 93%   Direction: 200°SSW
Pressure: 30.17"   Gusts: NA
Location:  51.55°N, 87.98°W
Report Text: CYLH 200500Z AUTO 20006KT 9SM OVC011 M08/M09 A3017 RMK SLP239
Loading
Personal Weather Stations






























Interactive Weather Map New forecast layout! Learn more

10-Day Weather Forecast

Advertisements
Track Severe Weather on mobile